Time;durP1;ratioP1;P1;durP2;ratioP2;P2;SDS_P1;SDS_P2;PMS_P1;PMS_P2;Temp;Humidity;BMP_temperature;BMP_pressure;BME280_temperature;BME280_humidity;BME280_pressure;Samples;Min_cycle;Max_cycle;Signal;HPM_P1;HPM_P2
2024/03/08 00:01:48;;;;;;;26.88;15.05;;;;;;;8.45;100.00;100043.22;5097048;28;20074;-62
2024/03/08 00:04:15;;;;;;;26.65;13.20;;;;;;;8.61;100.00;100044.31;5099307;28;20103;-62
2024/03/08 00:06:40;;;;;;;22.38;13.15;;;;;;;8.46;100.00;100042.25;5098257;28;20141;-64
2024/03/08 00:09:07;;;;;;;25.45;13.45;;;;;;;8.29;100.00;100036.66;5098503;28;20035;-62
2024/03/08 00:11:34;;;;;;;30.17;13.30;;;;;;;8.30;100.00;100033.03;5098727;28;20050;-63
2024/03/08 00:13:59;;;;;;;26.27;14.95;;;;;;;8.34;100.00;100030.19;5098779;28;20245;-62
2024/03/08 00:16:25;;;;;;;27.30;13.98;;;;;;;8.34;100.00;100031.03;5098794;28;20039;-62
2024/03/08 00:18:50;;;;;;;27.27;13.77;;;;;;;8.37;100.00;100033.38;5098573;28;20349;-62
2024/03/08 00:21:16;;;;;;;24.17;13.82;;;;;;;8.52;100.00;100025.84;5097288;28;20044;-62
2024/03/08 00:23:41;;;;;;;29.08;14.63;;;;;;;8.67;100.00;100032.34;5098501;28;20027;-63
2024/03/08 00:26:07;;;;;;;27.83;15.07;;;;;;;8.73;100.00;100017.75;5098606;28;20055;-64
2024/03/08 00:28:34;;;;;;;26.70;14.23;;;;;;;8.83;100.00;100024.66;5098776;28;20035;-63
2024/03/08 00:31:00;;;;;;;25.55;13.18;;;;;;;8.86;100.00;100029.66;5098415;28;20051;-62
2024/03/08 00:33:25;;;;;;;27.45;15.00;;;;;;;8.91;100.00;100026.56;5098379;28;20027;-62
2024/03/08 00:35:51;;;;;;;26.38;13.15;;;;;;;8.99;100.00;100031.97;5098612;28;20186;-63
2024/03/08 00:38:18;;;;;;;22.90;11.93;;;;;;;9.05;100.00;100027.91;5097339;28;20226;-64
2024/03/08 00:40:44;;;;;;;24.25;13.43;;;;;;;9.15;100.00;100037.47;5097825;28;20072;-62
2024/03/08 00:43:09;;;;;;;26.58;12.07;;;;;;;9.20;100.00;100029.94;5098610;28;20039;-62
2024/03/08 00:45:36;;;;;;;24.52;13.88;;;;;;;9.27;100.00;100033.66;5096695;28;20043;-62
2024/03/08 00:48:03;;;;;;;23.80;12.70;;;;;;;9.30;100.00;100035.16;5097512;28;20047;-62
2024/03/08 00:50:28;;;;;;;23.75;12.55;;;;;;;9.29;100.00;100038.78;5099061;28;20093;-61
2024/03/08 00:52:54;;;;;;;22.02;13.73;;;;;;;9.23;100.00;100032.28;5096546;28;20036;-64
2024/03/08 00:55:20;;;;;;;24.00;13.30;;;;;;;9.20;100.00;100037.84;5097901;28;20074;-64
2024/03/08 00:57:45;;;;;;;28.02;13.88;;;;;;;9.27;100.00;100030.19;5097397;28;20035;-63
2024/03/08 01:00:12;;;;;;;26.30;14.18;;;;;;;9.29;100.00;100038.78;5097728;28;20089;-62
2024/03/08 01:02:39;;;;;;;29.02;13.65;;;;;;;9.33;100.00;100036.69;5096475;28;20032;-63
2024/03/08 01:05:08;;;;;;;25.67;14.00;;;;;;;9.26;100.00;100031.97;5097539;28;20032;-65
2024/03/08 01:07:35;;;;;;;26.20;13.65;;;;;;;9.19;100.00;100030.91;5097251;28;20155;-65
2024/03/08 01:10:02;;;;;;;29.48;13.65;;;;;;;9.23;100.00;100034.09;5098027;28;20211;-62
2024/03/08 01:12:29;;;;;;;25.42;13.80;;;;;;;9.11;100.00;100025.53;5096642;28;20101;-63
2024/03/08 01:14:55;;;;;;;27.05;13.63;;;;;;;8.99;100.00;100013.47;5096558;28;20042;-63
2024/03/08 01:17:20;;;;;;;30.55;14.73;;;;;;;8.89;100.00;100018.78;5092150;28;20028;-63
2024/03/08 01:19:46;;;;;;;28.35;13.43;;;;;;;8.88;100.00;100018.94;5097527;28;20101;-62
2024/03/08 01:22:11;;;;;;;27.85;13.50;;;;;;;8.90;100.00;100020.47;5097311;28;20080;-63
2024/03/08 01:24:37;;;;;;;24.55;13.48;;;;;;;8.91;100.00;100019.47;5096872;28;20055;-65
2024/03/08 01:27:02;;;;;;;24.48;13.95;;;;;;;8.79;100.00;100019.81;5098043;28;20260;-65
2024/03/08 01:29:29;;;;;;;28.25;13.63;;;;;;;8.80;100.00;100021.47;5089181;28;20038;-63
2024/03/08 01:31:56;;;;;;;27.33;15.05;;;;;;;8.77;100.00;100013.84;5097058;28;20046;-63
2024/03/08 01:34:22;;;;;;;27.90;15.13;;;;;;;8.71;100.00;100020.53;5093052;28;20027;-62
2024/03/08 01:36:48;;;;;;;27.88;15.43;;;;;;;8.75;100.00;100021.91;5097905;28;20259;-63
2024/03/08 01:39:14;;;;;;;28.70;14.80;;;;;;;8.76;100.00;100028.00;5096707;28;20028;-63
2024/03/08 01:41:40;;;;;;;28.85;14.60;;;;;;;8.83;100.00;100037.03;5096608;28;20219;-64
2024/03/08 01:44:07;;;;;;;28.90;13.98;;;;;;;8.77;100.00;100035.78;5095888;28;20330;-62
2024/03/08 01:46:33;;;;;;;27.40;13.98;;;;;;;8.77;100.00;100027.03;5096405;28;20123;-63
2024/03/08 01:49:03;;;;;;;28.50;14.38;;;;;;;8.67;100.00;100026.22;5096905;28;20040;-62
2024/03/08 01:51:30;;;;;;;26.48;12.70;;;;;;;8.65;100.00;100031.66;5096541;28;20071;-62
2024/03/08 01:53:59;;;;;;;25.45;13.35;;;;;;;8.44;100.00;100020.44;5095883;28;20039;-63
2024/03/08 01:56:25;;;;;;;26.98;14.95;;;;;;;8.24;100.00;100032.78;5096186;28;20032;-64
2024/03/08 01:58:52;;;;;;;30.23;15.35;;;;;;;8.13;100.00;100030.28;5097159;28;20085;-63
2024/03/08 02:01:19;;;;;;;29.38;15.48;;;;;;;8.17;100.00;100026.38;5095280;28;20121;-62
2024/03/08 02:03:46;;;;;;;26.30;14.07;;;;;;;7.72;100.00;100019.03;5097352;28;20040;-63
2024/03/08 02:06:14;;;;;;;31.02;14.07;;;;;;;7.66;100.00;100019.56;5096183;28;20080;-63
2024/03/08 02:08:41;;;;;;;31.65;16.25;;;;;;;7.71;100.00;100034.97;5097147;28;20051;-64
2024/03/08 02:11:07;;;;;;;23.23;12.07;;;;;;;7.36;100.00;100031.84;5095932;28;20246;-64
2024/03/08 02:13:34;;;;;;;26.20;14.13;;;;;;;7.16;100.00;100029.25;5097591;28;20047;-62
2024/03/08 02:16:00;;;;;;;27.17;15.40;;;;;;;7.15;100.00;100035.50;5095989;28;20035;-62
2024/03/08 02:18:27;;;;;;;30.98;16.60;;;;;;;7.10;100.00;100032.44;5097269;28;20036;-63
2024/03/08 02:20:53;;;;;;;31.65;15.98;;;;;;;7.36;100.00;100029.22;5096167;28;20414;-62
2024/03/08 02:23:20;;;;;;;31.90;15.63;;;;;;;7.46;100.00;100033.69;5097203;28;20099;-64
2024/03/08 02:25:46;;;;;;;30.05;14.20;;;;;;;7.09;100.00;100042.13;5095677;28;20051;-65
2024/03/08 02:28:13;;;;;;;30.95;15.18;;;;;;;6.91;100.00;100035.81;5096848;28;20036;-62
2024/03/08 02:30:39;;;;;;;30.05;16.55;;;;;;;7.07;100.00;100037.97;5090262;28;20048;-62
2024/03/08 02:33:05;;;;;;;33.38;15.93;;;;;;;7.02;100.00;100036.56;5096560;28;20062;-62
2024/03/08 02:35:32;;;;;;;32.45;16.67;;;;;;;7.20;100.00;100041.19;5096751;28;20398;-65
2024/03/08 02:37:58;;;;;;;34.67;15.70;;;;;;;7.23;100.00;100041.75;5096123;28;20321;-63
2024/03/08 02:40:23;;;;;;;30.67;15.93;;;;;;;7.38;100.00;100031.72;5096581;28;20031;-64
2024/03/08 02:42:49;;;;;;;32.67;17.33;;;;;;;7.55;100.00;100027.59;5096453;28;20245;-63
2024/03/08 02:45:14;;;;;;;35.17;17.00;;;;;;;7.15;100.00;100035.50;5098147;28;20043;-63
2024/03/08 02:47:41;;;;;;;29.80;15.40;;;;;;;7.40;100.00;100040.31;5098881;28;20382;-63
2024/03/08 02:50:07;;;;;;;33.50;15.43;;;;;;;7.62;100.00;100039.25;5101065;28;20186;-63
2024/03/08 02:52:36;;;;;;;33.38;16.83;;;;;;;7.83;100.00;100037.34;5089979;28;20051;-65
2024/03/08 02:55:06;;;;;;;30.33;15.43;;;;;;;8.04;100.00;100033.75;5100505;28;20109;-65
2024/03/08 02:57:32;;;;;;;30.08;15.60;;;;;;;8.26;100.00;100041.38;5094143;28;20114;-63
2024/03/08 02:59:59;;;;;;;31.50;15.32;;;;;;;8.45;100.00;100038.78;5100131;28;20032;-62
2024/03/08 03:02:26;;;;;;;26.83;15.57;;;;;;;8.42;100.00;100038.22;5099072;28;20039;-62
2024/03/08 03:04:52;;;;;;;26.90;15.55;;;;;;;8.43;100.00;100035.44;5099969;28;20047;-64
2024/03/08 03:07:18;;;;;;;27.42;15.50;;;;;;;8.28;100.00;100035.00;5099043;28;20257;-63
2024/03/08 03:09:43;;;;;;;28.40;14.98;;;;;;;8.42;100.00;100039.06;5099467;28;20108;-62
2024/03/08 03:12:09;;;;;;;27.75;13.68;;;;;;;8.23;100.00;100039.03;5097241;28;20043;-62
2024/03/08 03:14:40;;;;;;;28.10;13.90;;;;;;;8.39;100.00;100038.50;5099825;28;20269;-62
2024/03/08 03:17:06;;;;;;;25.35;14.95;;;;;;;8.04;100.00;100041.66;5099715;28;20039;-62
2024/03/08 03:19:31;;;;;;;30.70;16.15;;;;;;;8.01;100.00;100040.13;5099272;28;20055;-62
2024/03/08 03:21:57;;;;;;;28.90;14.20;;;;;;;7.60;100.00;100043.84;5099672;28;20042;-64
2024/03/08 03:24:23;;;;;;;24.63;13.55;;;;;;;7.59;100.00;100048.28;5099400;28;20036;-64
2024/03/08 03:26:49;;;;;;;30.10;15.90;;;;;;;7.34;100.00;100062.75;5099784;28;20349;-62
2024/03/08 03:29:16;;;;;;;32.47;16.10;;;;;;;7.21;100.00;100054.22;5089655;28;20042;-62
2024/03/08 03:31:45;;;;;;;29.92;14.98;;;;;;;7.16;100.00;100056.44;5100187;28;20055;-62
2024/03/08 03:34:11;;;;;;;31.98;15.55;;;;;;;7.22;100.00;100057.69;5093944;28;20103;-64
2024/03/08 03:36:42;;;;;;;34.38;17.23;;;;;;;7.14;100.00;100061.00;5100275;28;20277;-64
2024/03/08 03:39:12;;;;;;;31.15;16.10;;;;;;;7.02;100.00;100054.97;5098984;28;20218;-63
2024/03/08 03:41:38;;;;;;;32.53;16.75;;;;;;;7.01;100.00;100060.38;5098354;28;20372;-62
2024/03/08 03:44:06;;;;;;;31.65;15.60;;;;;;;7.05;100.00;100061.78;5098537;28;20024;-62
2024/03/08 03:46:32;;;;;;;33.75;18.15;;;;;;;6.96;100.00;100062.56;5099403;28;20046;-62
2024/03/08 03:48:58;;;;;;;35.90;16.90;;;;;;;6.97;100.00;100061.59;5098671;28;20038;-62
2024/03/08 03:51:24;;;;;;;33.08;16.55;;;;;;;6.89;100.00;100062.25;5098958;28;20068;-62
2024/03/08 03:53:50;;;;;;;34.85;17.10;;;;;;;7.12;100.00;100059.47;5094272;28;20313;-64
2024/03/08 03:56:15;;;;;;;36.60;17.00;;;;;;;7.02;100.00;100060.25;5095774;28;20044;-62
2024/03/08 03:58:41;;;;;;;35.40;17.58;;;;;;;7.05;100.00;100067.06;5098944;28;20040;-62
2024/03/08 04:01:06;;;;;;;34.70;17.02;;;;;;;7.12;100.00;100070.81;5097588;28;20297;-62
2024/03/08 04:03:32;;;;;;;33.28;16.38;;;;;;;7.02;100.00;100075.22;5099163;28;20074;-64
2024/03/08 04:05:57;;;;;;;32.78;16.92;;;;;;;6.97;100.00;100072.97;5097459;28;20032;-64
2024/03/08 04:08:25;;;;;;;32.28;15.75;;;;;;;7.01;100.00;100071.75;5099027;28;20112;-62
2024/03/08 04:10:51;;;;;;;34.88;16.58;;;;;;;7.09;100.00;100073.72;5097760;28;20354;-62
2024/03/08 04:13:16;;;;;;;37.78;17.63;;;;;;;6.90;100.00;100069.19;5098697;28;20036;-62
2024/03/08 04:15:45;;;;;;;35.58;17.10;;;;;;;6.88;100.00;100070.28;5097008;28;20048;-64
2024/03/08 04:18:10;;;;;;;35.70;16.58;;;;;;;6.69;100.00;100084.19;5099222;28;20341;-64
2024/03/08 04:20:35;;;;;;;34.15;15.20;;;;;;;6.63;100.00;100076.78;5097357;28;20059;-62
2024/03/08 04:23:02;;;;;;;35.78;17.42;;;;;;;6.69;100.00;100071.84;5098340;28;20084;-62
2024/03/08 04:25:27;;;;;;;32.22;15.20;;;;;;;6.72;100.00;100073.38;5098543;28;20234;-62
2024/03/08 04:27:53;;;;;;;32.10;16.77;;;;;;;6.63;100.00;100079.44;5097962;28;20458;-62
2024/03/08 04:30:18;;;;;;;34.60;17.17;;;;;;;6.52;100.00;100077.69;5093045;28;20043;-62
2024/03/08 04:32:44;;;;;;;29.63;15.30;;;;;;;6.48;100.00;100071.03;5097890;28;20114;-64
2024/03/08 04:35:09;;;;;;;32.10;15.45;;;;;;;6.35;100.00;100080.91;5095904;28;20024;-64
2024/03/08 04:37:35;;;;;;;37.05;17.90;;;;;;;6.47;100.00;100082.50;5095069;28;20051;-62
2024/03/08 04:40:00;;;;;;;30.85;16.58;;;;;;;6.33;100.00;100083.66;5098805;28;20042;-61
2024/03/08 04:42:28;;;;;;;25.27;14.88;;;;;;;6.33;100.00;100088.06;5095983;28;20028;-62
2024/03/08 04:44:54;;;;;;;30.88;14.35;;;;;;;6.16;100.00;100084.16;5098345;28;20043;-63
2024/03/08 04:47:20;;;;;;;31.35;16.17;;;;;;;6.29;100.00;100090.13;5097316;28;20219;-64
2024/03/08 04:49:46;;;;;;;35.83;17.67;;;;;;;6.19;100.00;100099.69;5098082;28;20249;-62
2024/03/08 04:52:12;;;;;;;32.67;15.27;;;;;;;6.17;100.00;100092.91;5097084;28;20043;-62
2024/03/08 04:54:37;;;;;;;34.00;16.75;;;;;;;6.21;100.00;100087.25;5097472;28;20096;-62
2024/03/08 04:57:04;;;;;;;34.70;17.35;;;;;;;6.31;100.00;100090.84;5097254;28;20032;-64
2024/03/08 04:59:30;;;;;;;39.05;19.13;;;;;;;6.17;100.00;100096.34;5097276;28;20031;-64
2024/03/08 05:01:56;;;;;;;37.00;19.40;;;;;;;6.07;100.00;100098.91;5096801;28;20233;-62
2024/03/08 05:04:22;;;;;;;37.78;17.85;;;;;;;6.31;100.00;100103.16;5097480;28;20028;-62
2024/03/08 05:06:48;;;;;;;37.63;18.08;;;;;;;6.39;100.00;100098.94;5096950;28;20055;-63
2024/03/08 05:09:14;;;;;;;36.90;17.08;;;;;;;6.48;100.00;100104.38;5097655;28;20594;-62
2024/03/08 05:11:40;;;;;;;38.38;19.48;;;;;;;6.23;100.00;100110.78;5094624;28;20379;-62
2024/03/08 05:14:06;;;;;;;39.13;19.20;;;;;;;6.31;100.00;100101.34;5097244;28;20059;-62
2024/03/08 05:16:31;;;;;;;40.05;18.63;;;;;;;6.38;100.00;100106.94;5092689;28;20043;-64
2024/03/08 05:18:57;;;;;;;37.45;17.58;;;;;;;6.33;100.00;100106.47;5094789;28;20325;-64
2024/03/08 05:21:23;;;;;;;39.22;18.00;;;;;;;6.28;100.00;100114.75;5097399;28;20047;-62
2024/03/08 05:23:50;;;;;;;39.70;18.92;;;;;;;6.30;100.00;100115.47;5096343;28;20028;-62
2024/03/08 05:26:16;;;;;;;37.95;18.25;;;;;;;6.16;100.00;100122.78;5097390;28;20040;-62
2024/03/08 05:28:41;;;;;;;34.90;17.52;;;;;;;6.16;100.00;100120.97;5087104;28;20051;-64
2024/03/08 05:31:07;;;;;;;35.38;17.25;;;;;;;6.16;100.00;100128.88;5097370;28;20044;-64
2024/03/08 05:33:34;;;;;;;36.22;17.67;;;;;;;6.27;100.00;100133.28;5090243;28;20032;-62
2024/03/08 05:36:03;;;;;;;44.08;19.25;;;;;;;6.15;100.00;100127.19;5097680;28;20221;-62
2024/03/08 05:38:28;;;;;;;39.05;18.52;;;;;;;6.19;100.00;100118.09;5096555;28;20036;-62
2024/03/08 05:40:54;;;;;;;35.83;18.17;;;;;;;6.30;100.00;100130.41;5097469;28;20338;-64
2024/03/08 05:43:20;;;;;;;35.85;16.77;;;;;;;6.29;100.00;100139.25;5095433;28;20031;-64
2024/03/08 05:45:46;;;;;;;36.05;17.30;;;;;;;6.21;100.00;100136.38;5097461;28;20107;-62
2024/03/08 05:48:13;;;;;;;42.20;19.80;;;;;;;6.33;100.00;100148.56;5094212;28;20028;-62
2024/03/08 05:50:38;;;;;;;38.50;17.88;;;;;;;6.18;100.00;100144.53;5096576;28;20071;-62
2024/03/08 05:53:07;;;;;;;37.10;16.73;;;;;;;6.27;100.00;100149.91;5096873;28;20267;-62
2024/03/08 05:55:35;;;;;;;41.25;17.73;;;;;;;6.33;100.00;100153.81;5096429;28;20043;-62
2024/03/08 05:58:01;;;;;;;40.92;20.50;;;;;;;6.31;100.00;100151.31;5093730;28;20036;-64
2024/03/08 06:00:27;;;;;;;38.40;19.20;;;;;;;6.18;100.00;100162.94;5095462;28;20044;-64
2024/03/08 06:02:52;;;;;;;44.83;20.23;;;;;;;6.12;100.00;100155.53;5096548;28;20084;-62
2024/03/08 06:05:18;;;;;;;37.42;18.85;;;;;;;6.13;100.00;100155.41;5087444;28;20372;-61
2024/03/08 06:07:44;;;;;;;43.88;20.25;;;;;;;6.12;100.00;100158.16;5098028;28;20570;-62
2024/03/08 06:10:11;;;;;;;39.42;18.05;;;;;;;6.02;100.00;100160.69;5096361;28;20081;-63
2024/03/08 06:12:41;;;;;;;42.42;21.33;;;;;;;6.11;100.00;100164.38;5097201;28;20067;-62
2024/03/08 06:15:08;;;;;;;38.58;18.02;;;;;;;5.99;100.00;100171.44;5094724;28;20864;-62
2024/03/08 06:17:34;;;;;;;40.50;18.73;;;;;;;6.13;100.00;100170.34;5097041;28;20048;-62
2024/03/08 06:20:00;;;;;;;40.20;18.65;;;;;;;6.20;100.00;100172.34;5099424;28;20028;-62
2024/03/08 06:22:26;;;;;;;37.33;18.50;;;;;;;6.07;100.00;100176.94;5101355;28;20039;-64
2024/03/08 06:24:51;;;;;;;41.53;19.33;;;;;;;6.05;100.00;100174.44;5100006;28;20071;-62
2024/03/08 06:27:17;;;;;;;36.85;18.13;;;;;;;6.00;100.00;100173.97;5100627;28;20037;-63
2024/03/08 06:29:43;;;;;;;42.53;20.25;;;;;;;6.16;100.00;100168.31;5100288;28;20175;-62
2024/03/08 06:32:08;;;;;;;41.47;18.17;;;;;;;6.32;100.00;100174.03;5100618;28;20039;-62
2024/03/08 06:34:37;;;;;;;56.55;19.38;;;;;;;6.31;100.00;100180.25;5100571;28;20031;-64
2024/03/08 06:37:02;;;;;;;39.40;19.00;;;;;;;6.20;100.00;100180.25;5100381;28;20044;-64
2024/03/08 06:39:32;;;;;;;38.28;17.25;;;;;;;6.27;100.00;100176.19;5100126;28;20040;-62
2024/03/08 06:41:57;;;;;;;43.55;20.60;;;;;;;6.31;100.00;100179.41;5100184;28;20048;-61
2024/03/08 06:44:23;;;;;;;38.45;17.70;;;;;;;6.27;100.00;100181.47;5100763;28;20062;-62
2024/03/08 06:46:49;;;;;;;39.08;19.45;;;;;;;6.02;100.00;100103.69;5099266;28;20371;-62
2024/03/08 06:49:15;;;;;;;42.88;19.40;;;;;;;6.44;100.00;100193.25;5101572;28;20028;-64
2024/03/08 06:51:41;;;;;;;38.15;18.02;;;;;;;6.31;100.00;100190.78;5097713;28;20040;-64
2024/03/08 06:54:08;;;;;;;40.05;20.38;;;;;;;6.58;100.00;100192.13;5100508;28;20095;-62
2024/03/08 06:56:34;;;;;;;40.40;17.67;;;;;;;6.76;100.00;100193.22;5097910;28;20039;-62
2024/03/08 06:59:00;;;;;;;41.28;18.98;;;;;;;6.80;100.00;100199.91;5099608;28;20064;-62
2024/03/08 07:01:25;;;;;;;37.78;18.83;;;;;;;6.86;100.00;100201.19;5096747;28;20237;-62
2024/03/08 07:03:52;;;;;;;40.35;18.88;;;;;;;6.85;100.00;100204.78;5098949;28;20114;-62
2024/03/08 07:06:19;;;;;;;38.22;17.63;;;;;;;6.91;100.00;100207.75;5098643;28;20122;-64
2024/03/08 07:08:45;;;;;;;37.78;17.75;;;;;;;6.74;100.00;100205.69;5098553;28;20051;-64
2024/03/08 07:11:11;;;;;;;39.42;18.58;;;;;;;7.08;100.00;100201.09;5096767;28;20115;-62
2024/03/08 07:13:38;;;;;;;37.88;20.00;;;;;;;7.18;100.00;100206.41;5098118;28;20035;-62
2024/03/08 07:16:05;;;;;;;38.28;18.70;;;;;;;7.18;100.00;100207.25;5097055;28;20036;-62
2024/03/08 07:18:31;;;;;;;37.47;17.25;;;;;;;7.38;100.00;100200.31;5095941;28;20035;-64
2024/03/08 07:20:56;;;;;;;36.95;18.13;;;;;;;7.48;100.00;100206.47;5094834;28;20028;-64
2024/03/08 07:26:06;;;;;;;;;;;;;;;7.06;100.00;100216.19;5097543;28;20112;-62
2024/03/08 07:28:31;;;;;;;37.63;17.45;;;;;;;7.03;100.00;100204.09;5096296;28;19920;-62
2024/03/08 07:33:59;;;;;;;40.55;20.27;;;;;;;7.34;100.00;100207.66;5053778;28;20068;-62
2024/03/08 07:36:24;;;;;;;38.92;17.05;;;;;;;7.31;100.00;100212.34;5088795;28;20195;-62
2024/03/08 07:38:49;;;;;;;34.60;16.50;;;;;;;7.24;100.00;100212.00;5097420;28;20051;-62
2024/03/08 07:41:16;;;;;;;34.08;17.30;;;;;;;7.39;100.00;100215.16;5097965;28;20038;-62
2024/03/08 07:43:41;;;;;;;36.75;18.30;;;;;;;7.28;100.00;100221.34;5097243;28;20027;-62
2024/03/08 07:46:09;;;;;;;36.63;16.73;;;;;;;7.46;100.00;100226.03;5097437;28;20077;-62
2024/03/08 07:48:36;;;;;;;30.95;15.57;;;;;;;7.23;100.00;100217.41;5097863;28;20256;-64
2024/03/08 07:51:02;;;;;;;36.28;16.63;;;;;;;7.33;100.00;100213.06;5096946;28;20036;-62
2024/03/08 07:53:28;;;;;;;27.83;15.13;;;;;;;7.02;100.00;100225.28;5097200;28;20043;-61
2024/03/08 07:55:53;;;;;;;31.48;15.45;;;;;;;7.15;100.00;100228.56;5097002;28;20036;-62
2024/03/08 07:58:19;;;;;;;28.30;16.05;;;;;;;6.97;100.00;100235.38;5097114;28;20034;-64
2024/03/08 08:00:45;;;;;;;30.73;15.70;;;;;;;6.96;100.00;100224.00;5097368;28;20241;-64
2024/03/08 08:03:10;;;;;;;29.85;16.73;;;;;;;7.01;100.00;100229.72;5097886;28;20028;-62
2024/03/08 08:05:38;;;;;;;31.50;16.48;;;;;;;6.96;100.00;100229.28;5098361;28;20050;-62
2024/03/08 08:08:06;;;;;;;32.92;15.25;;;;;;;7.07;100.00;100238.06;5098730;28;20040;-64
2024/03/08 08:10:33;;;;;;;33.92;17.45;;;;;;;6.91;100.00;100230.63;5093388;28;20055;-64
2024/03/08 08:12:59;;;;;;;31.60;16.45;;;;;;;7.18;100.00;100230.94;5097849;28;20024;-62
2024/03/08 08:15:24;;;;;;;35.05;17.80;;;;;;;7.30;100.00;100235.22;5097422;28;20077;-62
2024/03/08 08:17:51;;;;;;;34.80;15.95;;;;;;;7.39;100.00;100236.25;5097080;28;20201;-62
2024/03/08 08:20:18;;;;;;;36.78;16.13;;;;;;;7.16;100.00;100229.41;5097348;28;20310;-62
2024/03/08 08:22:44;;;;;;;33.90;16.92;;;;;;;7.22;100.00;100239.44;5097749;28;20338;-62
2024/03/08 08:25:12;;;;;;;33.83;18.20;;;;;;;7.33;100.00;100215.69;5094728;28;20036;-64
2024/03/08 08:27:39;;;;;;;34.97;15.70;;;;;;;7.61;100.00;100240.53;5095777;28;20241;-64
2024/03/08 08:30:07;;;;;;;30.45;16.15;;;;;;;7.60;100.00;100246.75;5097920;28;20149;-63
2024/03/08 08:32:36;;;;;;;27.10;15.25;;;;;;;7.64;100.00;100243.72;5089084;28;20047;-63
2024/03/08 08:35:06;;;;;;;34.97;17.55;;;;;;;7.86;100.00;100250.63;5097718;28;20115;-65
2024/03/08 08:37:32;;;;;;;33.25;15.05;;;;;;;7.86;100.00;100239.25;5091440;28;20050;-65
2024/03/08 08:39:58;;;;;;;34.00;15.85;;;;;;;8.09;100.00;100248.63;5099289;28;20028;-64
2024/03/08 08:42:24;;;;;;;35.95;16.00;;;;;;;8.21;100.00;100241.44;5096657;28;20105;-64
2024/03/08 08:44:50;;;;;;;29.30;16.00;;;;;;;8.37;100.00;100247.09;5098457;28;20032;-64
2024/03/08 08:47:18;;;;;;;24.40;14.50;;;;;;;8.53;100.00;100249.22;5091414;28;20105;-66
2024/03/08 08:49:46;;;;;;;32.35;16.17;;;;;;;8.36;100.00;100245.44;5098980;28;20028;-65
2024/03/08 08:52:11;;;;;;;31.60;15.68;;;;;;;7.75;100.00;100250.72;5097462;28;20047;-64
2024/03/08 08:54:37;;;;;;;33.92;17.40;;;;;;;7.63;100.00;100242.06;5098460;28;20051;-63
2024/03/08 08:57:07;;;;;;;32.67;15.05;;;;;;;7.67;100.00;100243.47;5098108;28;20035;-63
2024/03/08 08:59:35;;;;;;;27.50;13.80;;;;;;;7.83;100.00;100235.06;5087402;28;20097;-66
2024/03/08 09:02:03;;;;;;;26.92;14.45;;;;;;;7.66;100.00;100246.22;5093624;28;20037;-64
2024/03/08 09:04:30;;;;;;;35.55;16.25;;;;;;;7.74;100.00;100235.03;5097625;28;20315;-63
2024/03/08 09:06:56;;;;;;;30.25;14.98;;;;;;;7.96;100.00;100242.75;5097766;28;20086;-63
2024/03/08 09:09:22;;;;;;;30.77;14.52;;;;;;;7.87;100.00;100238.28;5096984;28;20095;-63
2024/03/08 09:11:49;;;;;;;29.33;14.85;;;;;;;7.98;100.00;100243.47;5097754;28;20226;-66
2024/03/08 09:14:14;;;;;;;31.20;14.20;;;;;;;7.89;100.00;100244.25;5092351;28;20024;-63
2024/03/08 09:16:40;;;;;;;32.22;15.20;;;;;;;7.97;100.00;100236.50;5098427;28;20351;-63
2024/03/08 09:19:06;;;;;;;31.30;15.30;;;;;;;8.27;100.00;100238.28;5095618;28;20058;-63
2024/03/08 09:21:35;;;;;;;33.42;14.80;;;;;;;8.42;100.00;100244.06;5097903;28;20322;-64
2024/03/08 09:24:01;;;;;;;27.73;14.27;;;;;;;8.49;100.00;100242.53;5090292;28;20067;-64
2024/03/08 09:26:26;;;;;;;29.98;14.75;;;;;;;8.45;100.00;100247.25;5097852;28;20051;-65
2024/03/08 09:28:54;;;;;;;28.13;14.75;;;;;;;8.45;100.00;100252.53;5096476;28;20077;-65
2024/03/08 09:31:20;;;;;;;31.90;15.30;;;;;;;8.41;100.00;100242.38;5097655;28;20044;-64
2024/03/08 09:33:46;;;;;;;27.55;14.73;;;;;;;8.45;100.00;100243.78;5097856;28;20078;-64
2024/03/08 09:36:13;;;;;;;28.95;15.68;;;;;;;8.36;100.00;100250.72;5096942;28;20725;-63
2024/03/08 09:38:39;;;;;;;29.83;15.77;;;;;;;8.16;100.00;100247.13;5096872;28;20099;-66
2024/03/08 09:41:05;;;;;;;27.60;13.43;;;;;;;8.17;100.00;100245.31;5096741;28;20036;-65
2024/03/08 09:43:31;;;;;;;30.60;14.50;;;;;;;8.18;100.00;100247.84;5093887;28;20029;-63
2024/03/08 09:45:57;;;;;;;25.83;13.32;;;;;;;7.99;100.00;100251.25;5091381;28;20050;-63
2024/03/08 09:48:23;;;;;;;27.08;14.50;;;;;;;8.17;100.00;100245.31;5097206;28;20040;-64
2024/03/08 09:50:49;;;;;;;26.70;13.10;;;;;;;8.31;100.00;100253.69;5096387;28;20046;-64
2024/03/08 09:53:15;;;;;;;25.40;13.52;;;;;;;8.42;100.00;100249.34;5097120;28;20083;-64
2024/03/08 09:55:45;;;;;;;22.38;13.60;;;;;;;8.45;100.00;100255.19;5099308;28;20107;-66
2024/03/08 10:00:53;;;;;;;28.40;13.13;;;;;;;8.50;100.00;100249.50;5099743;28;20331;-64
2024/03/08 10:03:19;;;;;;;27.83;13.65;;;;;;;8.35;100.00;100250.84;5101340;28;20032;-64
2024/03/08 10:05:46;;;;;;;23.25;13.77;;;;;;;8.48;100.00;100249.63;5098035;28;20044;-64
2024/03/08 10:08:13;;;;;;;21.67;11.70;;;;;;;8.31;100.00;100248.41;5101184;28;20563;-65
2024/03/08 10:10:38;;;;;;;26.52;14.48;;;;;;;8.45;100.00;100244.63;5100103;28;20036;-65
2024/03/08 10:13:07;;;;;;;24.00;12.93;;;;;;;8.45;100.00;100247.25;5101456;28;20199;-64
2024/03/08 10:15:33;;;;;;;21.55;12.18;;;;;;;8.51;100.00;100240.59;5100842;28;20240;-64
2024/03/08 10:17:59;;;;;;;21.08;11.65;;;;;;;8.50;100.00;100249.50;5100758;28;20039;-64
2024/03/08 10:20:26;;;;;;;22.55;13.25;;;;;;;8.45;100.00;100243.78;5093712;28;20036;-65
2024/03/08 10:22:53;;;;;;;26.17;12.40;;;;;;;8.67;100.00;100226.88;5097959;28;20040;-66
2024/03/08 10:25:19;;;;;;;20.85;11.65;;;;;;;8.42;100.00;100241.41;5096406;28;20374;-63
2024/03/08 10:27:45;;;;;;;21.02;12.10;;;;;;;8.47;100.00;100245.31;5099212;28;20039;-63
2024/03/08 10:30:14;;;;;;;21.75;12.23;;;;;;;8.36;100.00;100244.59;5100241;28;20039;-64
2024/03/08 10:32:41;;;;;;;20.00;10.75;;;;;;;8.31;100.00;100210.66;5100260;28;20253;-64
2024/03/08 10:35:09;;;;;;;23.10;12.32;;;;;;;8.51;100.00;100238.81;5101840;28;20046;-63
2024/03/08 10:37:58;;;;;;;23.60;12.50;;;;;;;8.72;100.00;100237.84;5099784;28;20112;-65
2024/03/08 10:40:25;;;;;;;21.25;12.05;;;;;;;8.94;100.00;100238.41;5100976;28;20038;-64
2024/03/08 10:42:54;;;;;;;27.85;13.45;;;;;;;8.77;100.00;100228.53;5099589;28;20040;-63
2024/03/08 10:45:42;;;;;;;25.15;12.43;;;;;;;8.51;100.00;100233.53;5101015;28;20385;-63
2024/03/08 10:48:20;;;;;;;22.45;11.15;;;;;;;8.40;100.00;100233.63;5092371;28;20031;-64
2024/03/08 10:50:48;;;;;;;21.40;11.88;;;;;;;8.38;100.00;100232.09;5091306;28;20036;-65
2024/03/08 10:53:14;;;;;;;25.80;10.90;;;;;;;8.54;100.00;100227.13;5099821;28;20077;-64
2024/03/08 10:55:41;;;;;;;20.77;10.88;;;;;;;8.52;100.00;100218.50;5092226;28;20039;-64
2024/03/08 10:58:08;;;;;;;20.13;10.82;;;;;;;8.55;100.00;100219.06;5099880;28;20203;-63
2024/03/08 11:00:34;;;;;;;21.45;11.63;;;;;;;8.44;100.00;100221.84;5099164;28;20040;-64
2024/03/08 11:03:00;;;;;;;17.77;9.98;;;;;;;8.56;100.00;100217.28;5099726;28;20114;-63
2024/03/08 11:05:38;;;;;;;20.63;11.23;;;;;;;8.85;100.00;100215.47;5091272;28;20024;-63
2024/03/08 11:08:20;;;;;;;24.35;11.40;;;;;;;8.88;100.00;100203.78;5091118;28;20101;-65
2024/03/08 11:10:55;;;;;;;21.23;11.57;;;;;;;9.00;100.00;100205.31;5099741;28;20103;-65
2024/03/08 11:13:37;;;;;;;22.20;10.60;;;;;;;9.01;100.00;100204.34;5099814;28;20071;-64
2024/03/08 11:16:09;;;;;;;19.65;10.50;;;;;;;8.75;100.00;100209.38;5099422;28;20103;-63